< < Back
Terminal Aerodrome Forecast


Current Version              Previous Versions:   1  2  3  4  5  6  7  8  9  

Terminal Aerodrome Forecast

775
FTUS42 KFFC 231100
TAFMCN
TAF
KMCN 231126Z 2312/2412 31006KT 4SM BR FEW005
     FM231400 33007KT P6SM FEW012
     FM240000 32005KT P6SM SKC
     FM240800 02006KT P6SM SKC
     FM241100 06007KT P6SM SKC=

Latest METAR

552
SAUS80 KWBC 241400 RRA
MTRMCN
METAR KMCN 241353Z 08004KT 10SM CLR 17/09 A3003 RMK AO2 SLP167
T01720094


USA.gov is the U.S. government's official web portal to all federal, state and local government web resources and services.